Time;durP1;ratioP1;P1;durP2;ratioP2;P2;SDS_P1;SDS_P2;PMS_P1;PMS_P2;Temp;Humidity;BMP_temperature;BMP_pressure;BME280_temperature;BME280_humidity;BME280_pressure;Samples;Min_cycle;Max_cycle;Signal;HPM_P1;HPM_P2
2022/10/11 00:00:51;;;;;;;24.07;7.77;;;8.10;99.90;;;;;;5028204;28;20209;-80
2022/10/11 00:03:18;;;;;;;18.77;6.80;;;8.00;99.90;;;;;;5049832;28;20237;-80
2022/10/11 00:05:45;;;;;;;23.27;6.97;;;8.00;99.90;;;;;;5044581;28;20289;-81
2022/10/11 00:08:12;;;;;;;22.80;7.17;;;8.00;99.90;;;;;;5031519;28;20202;-80
2022/10/11 00:10:40;;;;;;;22.57;6.70;;;7.90;99.90;;;;;;5042846;28;20229;-79
2022/10/11 00:13:07;;;;;;;17.80;5.87;;;7.90;99.90;;;;;;5037137;28;20208;-78
2022/10/11 00:15:34;;;;;;;15.70;6.50;;;7.90;99.90;;;;;;5022093;28;20235;-80
2022/10/11 00:18:01;;;;;;;14.77;5.93;;;7.80;99.90;;;;;;5047233;28;20251;-79
2022/10/11 00:20:31;;;;;;;18.47;6.47;;;7.80;99.90;;;;;;5036772;28;20302;-79
2022/10/11 00:22:58;;;;;;;14.23;5.97;;;7.70;99.90;;;;;;5048086;28;20315;-79
2022/10/11 00:25:25;;;;;;;21.40;6.53;;;7.80;99.90;;;;;;5028358;28;20229;-80
2022/10/11 00:27:53;;;;;;;16.67;5.43;;;7.70;99.90;;;;;;5044993;28;20197;-80
2022/10/11 00:30:20;;;;;;;16.50;5.90;;;7.70;99.90;;;;;;5042728;28;20225;-79
2022/10/11 00:32:47;;;;;;;19.97;6.07;;;7.70;99.90;;;;;;5042460;28;20225;-79
2022/10/11 00:35:14;;;;;;;18.03;6.47;;;7.60;99.90;;;;;;5044750;28;20559;-82
2022/10/11 00:37:42;;;;;;;14.27;5.40;;;7.80;99.90;;;;;;5037852;28;20517;-81
2022/10/11 00:40:14;;;;;;;14.87;5.90;;;7.60;99.90;;;;;;5020042;28;20912;-80
2022/10/11 00:42:45;;;;;;;14.63;6.80;;;7.60;99.90;;;;;;5025821;28;20240;-80
2022/10/11 00:45:30;;;;;;;18.80;6.07;;;7.50;99.90;;;;;;5044475;28;20311;-81
2022/10/11 00:48:03;;;;;;;20.63;7.10;;;7.50;99.90;;;;;;5039232;28;20232;-80
2022/10/11 00:50:33;;;;;;;15.60;5.70;;;7.50;99.90;;;;;;5043873;28;20216;-80
2022/10/11 00:53:04;;;;;;;16.67;5.63;;;7.50;99.90;;;;;;5027093;28;20219;-80
2022/10/11 00:55:36;;;;;;;13.63;6.70;;;7.50;99.90;;;;;;5024983;28;20565;-81
2022/10/11 00:58:03;;;;;;;13.43;5.83;;;7.40;99.90;;;;;;5040712;28;20193;-80
2022/10/11 01:00:31;;;;;;;18.47;6.23;;;7.40;99.90;;;;;;5042860;28;20218;-80
2022/10/11 01:03:00;;;;;;;21.87;6.77;;;7.40;99.90;;;;;;5024787;28;20324;-81
2022/10/11 01:05:27;;;;;;;19.77;6.83;;;7.40;99.90;;;;;;5023210;28;20630;-81
2022/10/11 01:07:59;;;;;;;25.03;7.73;;;7.40;99.90;;;;;;5048438;28;20197;-81
2022/10/11 01:10:27;;;;;;;19.17;6.80;;;7.40;99.90;;;;;;5030222;28;20296;-81
2022/10/11 01:12:54;;;;;;;16.03;6.17;;;7.30;99.90;;;;;;5041367;28;20365;-79
2022/10/11 01:15:53;;;;;;;14.37;6.50;;;7.30;99.90;;;;;;5038186;28;20671;-81
2022/10/11 01:18:49;;;;;;;15.53;6.57;;;7.30;99.90;;;;;;5023626;28;20588;-80
2022/10/11 01:21:53;;;;;;;17.27;6.30;;;7.20;99.90;;;;;;5011052;28;20259;-81
2022/10/11 01:24:38;;;;;;;15.17;7.07;;;7.20;99.90;;;;;;5045571;28;20537;-82
2022/10/11 01:27:26;;;;;;;18.17;7.03;;;7.10;99.90;;;;;;5029169;28;20207;-79
2022/10/11 01:30:18;;;;;;;24.50;7.33;;;7.10;99.90;;;;;;5045665;28;20202;-81
2022/10/11 01:32:54;;;;;;;16.87;6.73;;;7.10;99.90;;;;;;5045585;28;20269;-80
2022/10/11 01:35:27;;;;;;;17.90;7.00;;;7.10;99.90;;;;;;5021639;28;20268;-79
2022/10/11 01:38:32;;;;;;;20.40;6.63;;;7.10;99.90;;;;;;5045857;28;20211;-80
2022/10/11 01:41:14;;;;;;;18.43;7.40;;;7.10;99.90;;;;;;5012559;28;20958;-79
2022/10/11 01:43:42;;;;;;;17.10;6.07;;;7.00;99.90;;;;;;5022361;28;20742;-79
2022/10/11 01:46:09;;;;;;;18.97;6.30;;;7.00;99.90;;;;;;5022237;28;20232;-79
2022/10/11 01:48:56;;;;;;;20.90;7.40;;;7.00;99.90;;;;;;5039529;28;20375;-78
2022/10/11 01:51:30;;;;;;;17.83;6.77;;;7.00;99.90;;;;;;5024823;28;20211;-79
2022/10/11 01:54:12;;;;;;;20.33;6.80;;;7.00;99.90;;;;;;5036923;28;20322;-79
2022/10/11 01:56:51;;;;;;;21.07;7.17;;;7.00;99.90;;;;;;5024480;28;20278;-79
2022/10/11 01:59:27;;;;;;;22.10;8.07;;;6.90;99.90;;;;;;5023787;28;20305;-80
2022/10/11 02:02:13;;;;;;;21.23;7.53;;;7.00;99.90;;;;;;5040626;28;20324;-80
2022/10/11 02:04:44;;;;;;;16.50;7.67;;;7.00;99.90;;;;;;5040496;28;20316;-79
2022/10/11 02:07:16;;;;;;;18.30;8.23;;;7.00;99.90;;;;;;5039940;28;20206;-80
2022/10/11 02:10:06;;;;;;;22.37;7.87;;;7.00;99.90;;;;;;5027031;28;20210;-80
2022/10/11 02:12:43;;;;;;;23.20;7.50;;;7.00;99.90;;;;;;5029469;28;20212;-79
2022/10/11 02:15:12;;;;;;;30.17;8.13;;;7.00;99.90;;;;;;5022947;28;20282;-78
2022/10/11 02:17:46;;;;;;;22.07;7.70;;;7.00;99.90;;;;;;5022532;28;20351;-78
2022/10/11 02:20:19;;;;;;;28.00;8.33;;;7.00;99.90;;;;;;5041073;28;20306;-80
2022/10/11 02:22:50;;;;;;;20.23;7.87;;;7.00;99.90;;;;;;5042743;28;20239;-80
2022/10/11 02:25:21;;;;;;;23.23;8.03;;;7.00;99.90;;;;;;5037673;28;20709;-79
2022/10/11 02:27:50;;;;;;;19.87;8.67;;;7.00;99.90;;;;;;5044693;28;20207;-80
2022/10/11 02:30:17;;;;;;;26.77;9.03;;;7.10;99.90;;;;;;5018687;28;20205;-78
2022/10/11 02:32:46;;;;;;;23.83;8.37;;;7.10;99.90;;;;;;5024458;28;20201;-78
2022/10/11 02:35:13;;;;;;;20.83;8.53;;;7.10;99.90;;;;;;5027867;28;20712;-78
2022/10/11 02:37:57;;;;;;;23.80;9.57;;;7.10;99.90;;;;;;5048519;28;20282;-80
2022/10/11 02:40:32;;;;;;;21.47;9.00;;;7.10;99.90;;;;;;5042552;28;20212;-80
2022/10/11 02:43:16;;;;;;;26.03;10.47;;;7.10;99.90;;;;;;5040153;28;20215;-79
2022/10/11 02:45:48;;;;;;;21.57;10.10;;;7.00;99.90;;;;;;5038171;28;20287;-80
2022/10/11 02:48:16;;;;;;;25.50;10.00;;;7.00;99.90;;;;;;5046537;28;20203;-79
2022/10/11 02:50:43;;;;;;;24.90;9.80;;;7.10;99.90;;;;;;5019581;28;20247;-79
2022/10/11 02:53:10;;;;;;;23.97;9.60;;;7.00;99.90;;;;;;5039714;28;20208;-78
2022/10/11 02:55:37;;;;;;;22.27;9.70;;;7.00;99.90;;;;;;5036362;28;20296;-80
2022/10/11 02:58:05;;;;;;;21.23;10.00;;;7.00;99.90;;;;;;5044242;28;20279;-78
2022/10/11 03:00:32;;;;;;;24.20;9.57;;;7.00;99.90;;;;;;5041054;28;20665;-78
2022/10/11 03:02:59;;;;;;;25.60;10.17;;;6.90;99.90;;;;;;5023147;28;20193;-79
2022/10/11 03:05:26;;;;;;;24.87;11.97;;;7.00;99.90;;;;;;5040653;28;20236;-79
2022/10/11 03:07:53;;;;;;;22.90;11.60;;;7.00;99.90;;;;;;5022501;28;20297;-79
2022/10/11 03:10:20;;;;;;;26.60;10.30;;;7.00;99.90;;;;;;5039753;28;20204;-81
2022/10/11 03:12:47;;;;;;;21.27;11.07;;;6.90;99.90;;;;;;5038144;28;20209;-79
2022/10/11 03:15:14;;;;;;;24.93;10.93;;;7.00;99.90;;;;;;5019052;28;20681;-80
2022/10/11 03:17:44;;;;;;;21.57;10.47;;;7.00;99.90;;;;;;5040087;28;20289;-81
2022/10/11 03:20:11;;;;;;;24.80;10.97;;;7.00;99.90;;;;;;5039343;28;20216;-78
2022/10/11 03:22:38;;;;;;;22.17;10.67;;;7.10;99.90;;;;;;5037635;28;20320;-78
2022/10/11 03:25:05;;;;;;;25.43;11.53;;;7.10;99.90;;;;;;5034847;28;20227;-79
2022/10/11 03:27:32;;;;;;;26.43;11.07;;;7.10;99.90;;;;;;5025817;28;20626;-79
2022/10/11 03:29:59;;;;;;;27.57;10.80;;;7.10;99.90;;;;;;5041756;28;20241;-80
2022/10/11 03:32:27;;;;;;;30.37;11.23;;;7.20;99.90;;;;;;5024089;28;20205;-81
2022/10/11 03:34:54;;;;;;;28.07;11.30;;;7.30;99.90;;;;;;5019697;28;20315;-79
2022/10/11 03:37:21;;;;;;;27.07;10.43;;;7.30;99.90;;;;;;5022879;28;20270;-80
2022/10/11 03:39:48;;;;;;;20.63;9.23;;;7.40;99.90;;;;;;5026594;28;20200;-79
2022/10/11 03:42:15;;;;;;;21.43;9.17;;;7.40;99.90;;;;;;5040342;28;20201;-79
2022/10/11 03:44:42;;;;;;;24.97;9.40;;;7.40;99.90;;;;;;5017477;28;20649;-78
2022/10/11 03:47:09;;;;;;;21.43;9.13;;;7.50;99.90;;;;;;5044604;28;20228;-79
2022/10/11 03:49:36;;;;;;;24.47;10.23;;;7.50;99.90;;;;;;5039981;28;20345;-78
2022/10/11 03:52:09;;;;;;;21.83;8.90;;;7.50;99.90;;;;;;5022669;28;20607;-79
2022/10/11 03:54:36;;;;;;;21.13;8.90;;;7.50;99.90;;;;;;5044304;28;20308;-80
2022/10/11 03:57:03;;;;;;;26.67;8.40;;;7.50;99.90;;;;;;5047465;28;20590;-80
2022/10/11 03:59:30;;;;;;;23.63;8.83;;;7.50;99.90;;;;;;5045941;28;20645;-79
2022/10/11 04:01:57;;;;;;;22.60;8.30;;;7.50;99.90;;;;;;5023547;28;20196;-79
2022/10/11 04:04:24;;;;;;;28.43;9.60;;;7.40;99.90;;;;;;5044018;28;20239;-79
2022/10/11 04:06:51;;;;;;;25.10;8.77;;;7.40;99.90;;;;;;5047320;28;20271;-79
2022/10/11 04:09:18;;;;;;;23.53;8.10;;;7.40;99.90;;;;;;5030209;28;20240;-81
2022/10/11 04:11:45;;;;;;;16.00;8.13;;;7.40;99.90;;;;;;5032526;28;20197;-79
2022/10/11 04:14:13;;;;;;;18.97;7.77;;;7.20;99.90;;;;;;5044860;28;20209;-78
2022/10/11 04:16:40;;;;;;;19.90;7.97;;;7.30;99.90;;;;;;5044499;28;20741;-80
2022/10/11 04:19:07;;;;;;;17.77;7.40;;;7.30;99.90;;;;;;5038638;28;20373;-79
2022/10/11 04:21:34;;;;;;;20.83;7.13;;;7.30;99.90;;;;;;5046203;28;20900;-81
2022/10/11 04:24:00;;;;;;;20.70;8.83;;;7.20;99.90;;;;;;5038732;28;20358;-79
2022/10/11 04:26:28;;;;;;;24.10;8.30;;;7.20;99.90;;;;;;5040518;28;20323;-80
2022/10/11 04:28:55;;;;;;;26.47;8.23;;;7.10;99.90;;;;;;5029206;28;20694;-78
2022/10/11 04:31:22;;;;;;;14.27;7.73;;;7.10;99.90;;;;;;5041409;28;20711;-78
2022/10/11 04:33:49;;;;;;;22.53;7.57;;;7.10;99.90;;;;;;5043611;28;20275;-79
2022/10/11 04:36:16;;;;;;;17.43;7.47;;;7.10;99.90;;;;;;5045312;28;20295;-79
2022/10/11 04:38:43;;;;;;;18.47;7.30;;;7.00;99.90;;;;;;5044666;28;20213;-79
2022/10/11 04:41:12;;;;;;;13.13;7.33;;;7.00;99.90;;;;;;5046790;28;20681;-79
2022/10/11 04:43:39;;;;;;;16.10;6.77;;;7.00;99.90;;;;;;5031793;28;20303;-78
2022/10/11 04:46:06;;;;;;;18.43;6.73;;;7.00;99.90;;;;;;5039561;28;20226;-79
2022/10/11 04:48:34;;;;;;;16.63;6.60;;;6.90;99.90;;;;;;5035707;28;20287;-80
2022/10/11 04:51:01;;;;;;;16.63;6.03;;;6.90;99.90;;;;;;5044908;28;20300;-80
2022/10/11 04:53:28;;;;;;;13.13;6.63;;;6.90;99.90;;;;;;5052337;28;20196;-80
2022/10/11 04:56:03;;;;;;;20.57;7.47;;;6.80;99.90;;;;;;5034997;28;20956;-79
2022/10/11 04:58:32;;;;;;;18.37;7.07;;;6.80;99.90;;;;;;5051882;28;20322;-79
2022/10/11 05:00:59;;;;;;;17.00;7.20;;;6.80;99.90;;;;;;5049807;28;20254;-79
2022/10/11 05:03:27;;;;;;;26.63;6.90;;;6.80;99.90;;;;;;5049076;28;20239;-80
2022/10/11 05:05:54;;;;;;;20.07;6.83;;;6.70;99.90;;;;;;5049397;28;20800;-78
2022/10/11 05:08:24;;;;;;;20.07;6.83;;;6.70;99.90;;;;;;5026896;28;20250;-79
2022/10/11 05:11:04;;;;;;;20.17;7.03;;;6.70;99.90;;;;;;5040286;28;20286;-80
2022/10/11 05:13:32;;;;;;;17.07;6.70;;;6.60;99.90;;;;;;5042978;28;20210;-80
2022/10/11 05:15:59;;;;;;;23.80;7.93;;;6.70;99.90;;;;;;5039705;28;20272;-80
2022/10/11 05:18:27;;;;;;;17.57;6.70;;;6.60;99.90;;;;;;5042498;28;20210;-80
2022/10/11 05:21:18;;;;;;;17.70;6.03;;;6.60;99.90;;;;;;5021407;28;20321;-79
2022/10/11 05:23:47;;;;;;;13.53;6.97;;;6.60;99.90;;;;;;5022582;28;20677;-80
2022/10/11 05:26:14;;;;;;;13.97;6.17;;;6.60;99.90;;;;;;5039714;28;20273;-79
2022/10/11 05:28:44;;;;;;;17.47;7.07;;;6.70;99.90;;;;;;5041115;28;20311;-79
2022/10/11 05:31:11;;;;;;;15.47;6.77;;;6.50;99.90;;;;;;5043782;28;20278;-80
2022/10/11 05:33:38;;;;;;;14.77;6.83;;;6.50;99.90;;;;;;5041181;28;20663;-79
2022/10/11 05:36:05;;;;;;;18.03;6.40;;;6.50;99.90;;;;;;5039990;28;20726;-79
2022/10/11 05:38:33;;;;;;;16.63;6.10;;;6.50;99.90;;;;;;5041626;28;20200;-80
2022/10/11 05:41:04;;;;;;;15.50;6.70;;;6.50;99.90;;;;;;5043352;28;20620;-79
2022/10/11 05:43:31;;;;;;;19.70;7.17;;;6.50;99.90;;;;;;5051008;28;20212;-78
2022/10/11 05:45:58;;;;;;;19.47;8.27;;;6.40;99.90;;;;;;5046333;28;20228;-80
2022/10/11 05:48:25;;;;;;;16.47;6.93;;;6.40;99.90;;;;;;5046888;28;20295;-79
2022/10/11 05:51:01;;;;;;;26.20;7.83;;;6.50;99.90;;;;;;5024637;28;20228;-79
2022/10/11 05:53:29;;;;;;;20.47;7.50;;;6.50;99.90;;;;;;5023483;28;20294;-79
2022/10/11 05:55:56;;;;;;;22.97;7.73;;;6.50;99.90;;;;;;5039029;28;20212;-81
2022/10/11 05:58:24;;;;;;;17.50;6.83;;;6.50;99.90;;;;;;5024006;28;20201;-79
2022/10/11 06:00:51;;;;;;;22.60;7.67;;;6.50;99.90;;;;;;5032707;28;20767;-79
2022/10/11 06:03:19;;;;;;;15.13;6.33;;;6.60;99.90;;;;;;5049925;28;20204;-79
2022/10/11 06:05:47;;;;;;;23.83;7.33;;;6.60;99.90;;;;;;5045209;28;20231;-78
2022/10/11 06:08:14;;;;;;;22.40;7.13;;;6.60;99.90;;;;;;5043846;28;20215;-78
2022/10/11 06:10:41;;;;;;;16.00;6.60;;;6.60;99.90;;;;;;5045222;28;20775;-81
2022/10/11 06:13:08;;;;;;;19.70;7.13;;;6.60;99.90;;;;;;5041534;28;20220;-78
2022/10/11 06:15:40;;;;;;;19.40;7.00;;;6.70;99.90;;;;;;5024569;28;20211;-80
2022/10/11 06:18:07;;;;;;;23.77;8.83;;;6.70;99.90;;;;;;5042900;28;20189;-80
2022/10/11 06:20:33;;;;;;;17.70;8.00;;;6.70;99.90;;;;;;5025981;28;20238;-79
2022/10/11 06:23:00;;;;;;;19.17;8.00;;;6.80;99.90;;;;;;5042683;28;20292;-77
2022/10/11 06:25:27;;;;;;;27.87;7.30;;;6.80;99.90;;;;;;5043173;28;20320;-77
2022/10/11 06:27:54;;;;;;;19.97;7.33;;;6.90;99.90;;;;;;5039742;28;20229;-76
2022/10/11 06:30:21;;;;;;;15.73;7.27;;;6.90;99.90;;;;;;5038773;28;20304;-76
2022/10/11 06:32:48;;;;;;;21.53;8.17;;;7.00;99.90;;;;;;5039617;28;20212;-80
2022/10/11 06:35:14;;;;;;;19.83;8.60;;;7.10;99.90;;;;;;5022332;28;20225;-76
2022/10/11 06:37:41;;;;;;;21.00;8.33;;;7.20;99.90;;;;;;5021277;28;20706;-76
2022/10/11 06:40:08;;;;;;;23.87;8.17;;;7.30;99.90;;;;;;5020947;28;20247;-77
2022/10/11 06:42:35;;;;;;;16.53;7.20;;;7.40;99.90;;;;;;5021806;28;20733;-77
2022/10/11 06:45:02;;;;;;;17.67;7.17;;;7.50;99.90;;;;;;5024361;28;20231;-77
2022/10/11 06:47:29;;;;;;;21.00;7.80;;;7.60;99.90;;;;;;5021462;28;20662;-78
2022/10/11 06:49:56;;;;;;;14.37;6.23;;;7.60;99.90;;;;;;5017887;28;20214;-76
2022/10/11 06:52:24;;;;;;;16.77;6.70;;;7.80;99.90;;;;;;5020360;28;20289;-77
2022/10/11 06:54:50;;;;;;;11.33;6.03;;;7.90;99.90;;;;;;5032227;28;20596;-77
2022/10/11 06:57:17;;;;;;;17.73;5.80;;;8.10;99.90;;;;;;5002244;28;20244;-78
2022/10/11 06:59:44;;;;;;;18.43;5.80;;;8.20;99.90;;;;;;5022124;28;20207;-77
2022/10/11 07:02:11;;;;;;;16.77;6.10;;;8.30;99.90;;;;;;5025738;28;20208;-76
2022/10/11 07:04:38;;;;;;;16.97;5.37;;;8.40;99.90;;;;;;5031137;28;21102;-77
2022/10/11 07:07:04;;;;;;;24.47;6.60;;;8.50;99.90;;;;;;5005233;28;20335;-75
2022/10/11 07:09:33;;;;;;;19.07;5.13;;;8.60;99.90;;;;;;5031110;28;20712;-77
2022/10/11 07:11:59;;;;;;;19.70;6.40;;;8.70;99.90;;;;;;5028233;28;20198;-78
2022/10/11 07:14:27;;;;;;;13.43;4.60;;;8.70;99.90;;;;;;5025663;28;20580;-76
2022/10/11 07:16:53;;;;;;;16.73;5.10;;;8.90;99.90;;;;;;5032201;28;20716;-77
2022/10/11 07:19:20;;;;;;;16.13;4.77;;;9.00;99.90;;;;;;5031560;28;20773;-76
2022/10/11 07:21:47;;;;;;;17.57;5.00;;;9.00;99.90;;;;;;5024991;28;20562;-78
2022/10/11 07:24:14;;;;;;;11.37;4.93;;;9.10;99.90;;;;;;5012936;28;20680;-78
2022/10/11 07:26:42;;;;;;;19.10;4.53;;;9.30;99.90;;;;;;5025222;28;20322;-79
2022/10/11 07:29:10;;;;;;;12.33;4.30;;;9.30;99.90;;;;;;5022415;28;20256;-79
2022/10/11 07:31:39;;;;;;;11.87;5.13;;;9.40;99.90;;;;;;5028302;28;20205;-80
2022/10/11 07:34:06;;;;;;;12.23;4.50;;;9.50;99.90;;;;;;5041345;28;20689;-77
2022/10/11 07:36:33;;;;;;;8.67;4.00;;;9.60;99.90;;;;;;5020329;28;20212;-79
2022/10/11 07:39:03;;;;;;;20.40;4.83;;;9.60;99.90;;;;;;5028331;28;20205;-79
2022/10/11 07:41:29;;;;;;;11.50;4.27;;;9.70;99.90;;;;;;5045360;28;20812;-78
2022/10/11 07:43:56;;;;;;;12.67;4.17;;;9.70;99.90;;;;;;5043250;28;20202;-79
2022/10/11 07:46:23;;;;;;;10.93;4.27;;;9.80;99.90;;;;;;5032620;28;20220;-77
2022/10/11 07:48:50;;;;;;;11.73;3.83;;;9.90;99.90;;;;;;5050126;28;20234;-78
2022/10/11 07:51:20;;;;;;;16.93;5.10;;;10.00;99.90;;;;;;5044381;28;20209;-79
2022/10/11 07:53:50;;;;;;;12.00;4.30;;;10.00;99.90;;;;;;5044637;28;20198;-78
2022/10/11 07:56:20;;;;;;;13.27;5.00;;;10.10;99.90;;;;;;5046375;28;20271;-77
2022/10/11 07:58:51;;;;;;;12.57;4.57;;;10.20;99.90;;;;;;5025625;28;20201;-79
2022/10/11 08:01:19;;;;;;;13.17;4.20;;;10.30;99.90;;;;;;5045449;28;20207;-77
2022/10/11 08:03:47;;;;;;;16.10;4.70;;;10.30;99.90;;;;;;5045706;28;20692;-76
2022/10/11 08:06:17;;;;;;;16.20;4.20;;;10.40;99.90;;;;;;5032343;28;20273;-79
2022/10/11 08:08:44;;;;;;;12.50;4.00;;;10.50;99.90;;;;;;5041767;28;20645;-79
2022/10/11 08:11:24;;;;;;;14.03;3.83;;;10.60;99.90;;;;;;5050476;28;20645;-78
2022/10/11 08:13:51;;;;;;;14.47;4.00;;;10.60;99.90;;;;;;5047971;28;20278;-78
2022/10/11 08:16:19;;;;;;;12.00;3.83;;;10.70;99.90;;;;;;5048953;28;20253;-79
2022/10/11 08:18:46;;;;;;;11.23;3.90;;;11.10;99.90;;;;;;5046597;28;20293;-79
2022/10/11 08:21:15;;;;;;;14.93;5.43;;;10.90;99.90;;;;;;5028785;28;20207;-79
2022/10/11 08:23:42;;;;;;;13.70;4.10;;;11.40;99.90;;;;;;5040088;28;20599;-77
2022/10/11 08:26:09;;;;;;;16.60;5.23;;;10.90;99.90;;;;;;5039942;28;20318;-77
2022/10/11 08:28:36;;;;;;;13.27;5.03;;;10.90;99.90;;;;;;5038200;28;20199;-79
2022/10/11 08:31:04;;;;;;;15.80;5.70;;;10.90;99.90;;;;;;5016915;28;20212;-81
2022/10/11 08:33:31;;;;;;;12.70;4.30;;;11.10;99.90;;;;;;5031755;28;20800;-78
2022/10/11 08:36:02;;;;;;;15.73;4.23;;;11.10;99.90;;;;;;5016564;28;20217;-79
2022/10/11 08:38:29;;;;;;;12.57;3.00;;;10.90;99.90;;;;;;5015090;28;20192;-77
2022/10/11 08:40:58;;;;;;;8.37;3.30;;;10.70;99.90;;;;;;5005992;28;20212;-78
2022/10/11 08:43:25;;;;;;;8.20;2.60;;;11.40;99.90;;;;;;5018760;28;20297;-79
2022/10/11 08:45:56;;;;;;;12.63;3.63;;;11.50;99.90;;;;;;5021314;28;20583;-79
2022/10/11 08:48:46;;;;;;;11.27;2.70;;;11.50;99.90;;;;;;5030951;28;20572;-77
2022/10/11 08:51:37;;;;;;;8.53;2.80;;;11.40;99.90;;;;;;5022867;28;20546;-78
2022/10/11 08:54:12;;;;;;;15.77;3.27;;;11.30;99.90;;;;;;5026654;28;20212;-77
2022/10/11 08:56:42;;;;;;;10.30;3.57;;;11.30;99.90;;;;;;5015306;28;20546;-78
2022/10/11 08:59:11;;;;;;;12.37;2.73;;;11.40;99.90;;;;;;5013797;28;20210;-80
2022/10/11 09:02:03;;;;;;;9.77;2.67;;;11.40;99.90;;;;;;5024529;28;20201;-77
2022/10/11 09:04:31;;;;;;;14.27;3.27;;;11.50;99.90;;;;;;5047005;28;20627;-77
2022/10/11 09:07:06;;;;;;;10.97;3.50;;;11.60;99.90;;;;;;5029090;28;20229;-78
2022/10/11 09:10:06;;;;;;;14.93;3.13;;;11.70;99.90;;;;;;5003839;28;20412;-78
2022/10/11 09:12:42;;;;;;;11.90;3.53;;;;;;;;;;5028343;28;20241;-78
2022/10/11 09:15:17;;;;;;;11.10;2.93;;;11.80;99.90;;;;;;5019937;28;20582;-76
2022/10/11 09:18:19;;;;;;;10.10;2.30;;;11.90;99.90;;;;;;4992042;28;20277;-76
2022/10/11 09:21:07;;;;;;;12.40;3.07;;;12.00;99.90;;;;;;4968333;28;20222;-77
2022/10/11 09:23:36;;;;;;;9.17;2.60;;;12.10;99.90;;;;;;5020505;28;20210;-77
2022/10/11 09:26:18;;;;;;;9.33;2.47;;;12.30;99.90;;;;;;5029088;28;20316;-78
2022/10/11 09:29:08;;;;;;;12.83;2.30;;;12.40;99.90;;;;;;5018294;28;20210;-78
2022/10/11 09:31:35;;;;;;;17.40;2.33;;;12.60;99.90;;;;;;5016807;28;20284;-78
2022/10/11 09:34:10;;;;;;;10.87;2.10;;;12.70;99.90;;;;;;5036038;28;20348;-77
2022/10/11 09:36:44;;;;;;;10.43;2.87;;;12.80;99.90;;;;;;5044848;28;20284;-77
2022/10/11 09:39:16;;;;;;;9.77;2.10;;;12.90;99.90;;;;;;5038751;28;20291;-77
2022/10/11 09:41:49;;;;;;;10.43;2.27;;;13.00;99.90;;;;;;5043816;28;20661;-78
2022/10/11 09:44:22;;;;;;;10.13;3.00;;;13.20;99.90;;;;;;5041512;28;20197;-77
2022/10/11 09:46:52;;;;;;;12.83;3.00;;;13.30;99.90;;;;;;5039913;28;20224;-78
2022/10/11 09:49:24;;;;;;;14.67;2.13;;;13.40;99.90;;;;;;5040374;28;20304;-77
2022/10/11 09:51:57;;;;;;;10.80;1.93;;;13.50;99.90;;;;;;5036114;28;20206;-78
2022/10/11 09:54:42;;;;;;;7.30;1.57;;;13.50;99.90;;;;;;5041872;28;20379;-76
2022/10/11 09:57:28;;;;;;;10.50;2.23;;;13.60;99.90;;;;;;5038740;28;20657;-78
2022/10/11 10:00:01;;;;;;;10.47;2.70;;;13.60;99.90;;;;;;5040060;28;20206;-76
2022/10/11 10:02:29;;;;;;;14.13;3.53;;;13.70;99.90;;;;;;5050329;28;20643;-77
2022/10/11 10:05:13;;;;;;;11.27;2.30;;;13.70;99.90;;;;;;5046608;28;20579;-79
2022/10/11 10:08:16;;;;;;;7.93;2.57;;;13.70;99.90;;;;;;5031706;28;20566;-79
2022/10/11 10:11:00;;;;;;;9.37;2.10;;;13.60;99.90;;;;;;5031741;28;20205;-78
2022/10/11 10:13:50;;;;;;;7.10;2.10;;;13.50;99.90;;;;;;5051884;28;20283;-80
2022/10/11 10:16:32;;;;;;;8.33;2.20;;;13.60;99.90;;;;;;5047256;28;20258;-79
2022/10/11 10:19:02;;;;;;;8.40;2.00;;;13.60;99.90;;;;;;5051617;28;20815;-79
2022/10/11 10:21:29;;;;;;;13.80;2.40;;;13.50;99.90;;;;;;5058547;28;20278;-80
2022/10/11 10:24:01;;;;;;;8.93;2.07;;;13.50;99.90;;;;;;5029592;28;20638;-80
2022/10/11 10:26:30;;;;;;;11.83;2.10;;;13.50;99.90;;;;;;5040379;28;20348;-80
2022/10/11 10:29:08;;;;;;;9.40;2.20;;;13.50;99.90;;;;;;5043981;28;20212;-77
2022/10/11 10:31:38;;;;;;;13.07;2.20;;;13.50;99.90;;;;;;5036379;28;20197;-79
2022/10/11 10:34:37;;;;;;;9.53;3.27;;;13.50;99.90;;;;;;5035785;28;20236;-78
2022/10/11 10:37:44;;;;;;;9.90;2.07;;;13.70;99.90;;;;;;5037723;28;20205;-80
2022/10/11 10:40:22;;;;;;;8.03;2.20;;;13.70;99.90;;;;;;5045019;28;20200;-79
2022/10/11 10:42:50;;;;;;;15.30;2.47;;;13.80;99.90;;;;;;5046532;28;20210;-79
2022/10/11 10:45:17;;;;;;;14.37;2.57;;;13.90;99.90;;;;;;5043893;28;20224;-79
2022/10/11 10:48:26;;;;;;;6.97;1.83;;;14.00;99.90;;;;;;5041487;28;20633;-77
2022/10/11 10:51:12;;;;;;;12.37;2.27;;;14.10;99.90;;;;;;5045241;28;20244;-79
2022/10/11 10:54:08;;;;;;;7.70;2.10;;;14.30;99.90;;;;;;5040289;28;20491;-80
2022/10/11 10:56:54;;;;;;;7.87;2.13;;;14.40;99.90;;;;;;4986107;28;20288;-78
2022/10/11 10:59:57;;;;;;;9.93;2.20;;;14.60;99.90;;;;;;5042312;28;20205;-80
2022/10/11 11:02:53;;;;;;;10.00;2.70;;;14.70;99.90;;;;;;5043639;28;20259;-79
2022/10/11 11:05:58;;;;;;;11.13;2.23;;;14.80;99.90;;;;;;5040948;28;20218;-79
2022/10/11 11:09:12;;;;;;;9.23;2.23;;;15.00;99.90;;;;;;5045808;28;20208;-79
2022/10/11 11:12:13;;;;;;;9.80;1.97;;;15.30;99.90;;;;;;4950379;28;20732;-79
2022/10/11 11:14:46;;;;;;;10.87;2.00;;;15.50;99.90;;;;;;5027215;28;20204;-78
2022/10/11 11:17:31;;;;;;;10.77;2.33;;;15.60;99.90;;;;;;5044842;28;20695;-79
2022/10/11 11:20:37;;;;;;;12.10;2.33;;;15.70;99.90;;;;;;5038063;28;20213;-79
2022/10/11 11:23:30;;;;;;;12.33;2.60;;;16.00;99.90;;;;;;5040987;28;20304;-80
2022/10/11 11:26:19;;;;;;;14.63;2.30;;;16.00;99.90;;;;;;5040997;28;20230;-81
2022/10/11 11:28:55;;;;;;;8.30;2.50;;;16.30;99.90;;;;;;5042870;28;20197;-79
2022/10/11 11:31:37;;;;;;;10.23;2.13;;;16.40;99.90;;;;;;5048575;28;20206;-79
2022/10/11 11:34:24;;;;;;;6.97;2.33;;;16.60;99.90;;;;;;5045599;28;20221;-79
2022/10/11 11:36:56;;;;;;;7.85;2.40;;;16.80;99.90;;;;;;5030424;28;20209;-78
2022/10/11 11:39:50;;;;;;;10.57;2.20;;;16.90;99.90;;;;;;5041434;28;20202;-79
2022/10/11 11:42:41;;;;;;;11.35;2.20;;;17.10;99.90;;;;;;5046082;28;20654;-79
2022/10/11 11:45:49;;;;;;;11.95;2.65;;;17.20;99.90;;;;;;5030438;28;20201;-79
2022/10/11 11:48:25;;;;;;;11.70;2.65;;;17.30;99.90;;;;;;5012919;28;20232;-80
2022/10/11 11:51:04;;;;;;;11.65;2.58;;;17.40;99.90;;;;;;5037298;28;20248;-79
2022/10/11 11:53:50;;;;;;;6.25;1.95;;;17.40;99.90;;;;;;5041578;28;20780;-78
2022/10/11 11:56:28;;;;;;;10.18;2.33;;;17.50;99.90;;;;;;5041013;28;21266;-80
2022/10/11 11:59:13;;;;;;;7.57;2.03;;;17.60;99.90;;;;;;5039678;28;20347;-81
2022/10/11 12:02:14;;;;;;;9.35;2.75;;;17.70;99.90;;;;;;5027651;28;20292;-80
2022/10/11 12:04:44;;;;;;;13.50;2.70;;;17.50;99.90;;;;;;5041048;28;20640;-79
2022/10/11 12:07:18;;;;;;;12.40;2.47;;;17.20;99.90;;;;;;5039110;28;20252;-79
2022/10/11 12:09:50;;;;;;;8.02;2.15;;;17.10;99.90;;;;;;5043958;28;20233;-80
2022/10/11 12:12:36;;;;;;;14.20;3.20;;;17.00;99.90;;;;;;5030465;28;20201;-79
2022/10/11 12:15:18;;;;;;;7.63;2.50;;;17.10;99.90;;;;;;5041305;28;20763;-79
2022/10/11 12:17:57;;;;;;;11.27;2.53;;;17.20;99.90;;;;;;5024537;28;20265;-81
2022/10/11 12:20:30;;;;;;;11.48;2.00;;;17.50;99.90;;;;;;5038488;28;20232;-79
2022/10/11 12:23:28;;;;;;;13.52;2.78;;;17.60;99.90;;;;;;5022872;28;20284;-78
2022/10/11 12:26:17;;;;;;;12.93;2.95;;;17.90;99.90;;;;;;5037954;28;20229;-79
2022/10/11 12:28:59;;;;;;;7.18;2.22;;;18.00;99.90;;;;;;5040370;28;20250;-79
2022/10/11 12:31:32;;;;;;;8.90;1.77;;;18.10;99.90;;;;;;5037302;28;20296;-78
2022/10/11 12:34:07;;;;;;;8.52;2.38;;;18.30;99.90;;;;;;5059862;28;20228;-78
2022/10/11 12:36:39;;;;;;;10.55;2.20;;;18.50;99.90;;;;;;5049798;28;20202;-78
2022/10/11 12:39:18;;;;;;;9.30;2.22;;;18.50;99.90;;;;;;5043108;28;20263;-79
2022/10/11 12:41:54;;;;;;;6.30;2.20;;;18.50;99.90;;;;;;5042066;28;20298;-79
2022/10/11 12:44:25;;;;;;;8.60;2.60;;;18.40;99.90;;;;;;5041192;28;20206;-78
2022/10/11 12:46:58;;;;;;;7.45;2.08;;;18.30;99.90;;;;;;5040449;28;20299;-78
2022/10/11 12:49:54;;;;;;;10.05;2.58;;;18.10;99.90;;;;;;5035514;28;20976;-77
2022/10/11 12:52:33;;;;;;;9.05;2.25;;;17.90;99.90;;;;;;5043401;28;20271;-78
2022/10/11 12:55:28;;;;;;;16.67;3.38;;;17.70;99.90;;;;;;5038972;28;20251;-78
2022/10/11 12:58:22;;;;;;;15.93;3.05;;;17.60;99.90;;;;;;5041593;28;20280;-79
2022/10/11 13:00:51;;;;;;;5.78;2.42;;;17.50;99.90;;;;;;5040767;28;20212;-77
2022/10/11 13:03:34;;;;;;;9.30;2.10;;;17.40;99.90;;;;;;5044373;28;20296;-77
2022/10/11 13:06:14;;;;;;;11.25;2.10;;;17.40;99.90;;;;;;5025127;28;20280;-78
2022/10/11 13:08:46;;;;;;;10.05;2.30;;;17.30;99.90;;;;;;5040959;28;20206;-77
2022/10/11 13:11:19;;;;;;;7.97;2.60;;;17.20;99.90;;;;;;5023469;28;20303;-77
2022/10/11 13:13:56;;;;;;;11.55;2.42;;;17.20;99.90;;;;;;5021301;28;20296;-78
2022/10/11 13:16:27;;;;;;;9.43;2.83;;;17.10;99.90;;;;;;5038650;28;20259;-79